createdAt,value
2023-04-26T00:00:26.374Z,76.77
2023-04-26T00:05:32.077Z,76.57
2023-04-26T00:10:34.879Z,75.13
2023-04-26T00:15:38.338Z,74.66
2023-04-26T00:20:42.641Z,74.17
2023-04-26T00:25:45.679Z,74.84
2023-04-26T00:30:48.951Z,74.38
2023-04-26T00:35:53.238Z,74.83
2023-04-26T00:40:56.066Z,73.28
2023-04-26T00:45:59.381Z,74.25
2023-04-26T00:51:05.598Z,75.38
2023-04-26T00:56:10.912Z,75.79
2023-04-26T01:01:14.371Z,75.64
2023-04-26T01:06:19.000Z,74.27
2023-04-26T01:11:23.278Z,76.08
2023-04-26T01:16:26.736Z,77.26
2023-04-26T01:21:33.344Z,77.55
2023-04-26T01:26:43.848Z,78.86
2023-04-26T01:31:47.207Z,77.39
2023-04-26T01:36:51.030Z,77.34
2023-04-26T01:41:55.317Z,76.18
2023-04-26T01:46:58.079Z,76.54
2023-04-26T01:52:00.864Z,77.56
2023-04-26T01:57:05.153Z,78.70
2023-04-26T02:02:07.997Z,78.75
2023-04-26T02:07:14.190Z,78.97
2023-04-26T02:12:23.072Z,78.02
2023-04-26T02:17:26.632Z,79.33
2023-04-26T02:22:29.754Z,79.22
2023-04-26T02:27:33.900Z,79.84
2023-04-26T02:32:39.803Z,81.84
2023-04-26T02:37:42.627Z,79.83
2023-04-26T02:42:47.586Z,80.23
2023-04-26T02:47:50.444Z,80.72
2023-04-26T02:52:53.194Z,81.38
2023-04-26T02:57:57.602Z,82.31
2023-04-26T03:03:00.930Z,82.66
2023-04-26T03:08:03.790Z,83.40
2023-04-26T03:13:07.961Z,83.58
2023-04-26T03:18:10.973Z,83.29
2023-04-26T03:23:14.124Z,83.42
2023-04-26T03:28:18.683Z,84.11
2023-04-26T03:33:21.599Z,83.23
2023-04-26T03:38:24.986Z,84.55
2023-04-26T03:43:29.817Z,85.13
2023-04-26T03:48:32.834Z,85.89
2023-04-26T03:53:36.152Z,84.00
2023-04-26T03:58:40.364Z,84.14
2023-04-26T04:03:43.481Z,84.29
2023-04-26T04:08:46.847Z,84.23
2023-04-26T04:13:51.973Z,86.32
2023-04-26T04:18:54.982Z,84.90
2023-04-26T04:23:58.052Z,83.91
2023-04-26T04:29:09.160Z,84.61
2023-04-26T04:34:13.672Z,83.48
2023-04-26T04:39:18.445Z,83.88
2023-04-26T04:44:24.293Z,84.59
2023-04-26T04:49:29.177Z,83.60
2023-04-26T04:54:32.208Z,79.84
2023-04-26T04:59:37.644Z,77.40
2023-04-26T05:04:41.047Z,77.41
2023-04-26T05:09:44.135Z,78.82
2023-04-26T05:14:48.510Z,78.10
2023-04-26T05:19:51.765Z,77.93
2023-04-26T05:24:54.648Z,77.16
2023-04-26T05:29:58.867Z,77.09
2023-04-26T05:35:19.953Z,77.67
2023-04-26T05:40:23.895Z,73.36
2023-04-26T05:45:28.109Z,72.28
2023-04-26T05:50:31.257Z,72.23
2023-04-26T05:55:34.076Z,73.10
2023-04-26T06:00:39.555Z,71.12
2023-04-26T06:05:43.514Z,70.76
2023-04-26T06:10:47.100Z,70.00
2023-04-26T06:15:51.455Z,64.67
2023-04-26T06:20:54.280Z,57.01
2023-04-26T06:25:57.246Z,62.38
2023-04-26T06:31:01.517Z,64.78
2023-04-26T06:36:06.235Z,54.04
2023-04-26T06:41:09.339Z,48.72
2023-04-26T06:46:14.291Z,46.85
2023-04-26T06:51:17.374Z,42.65
2023-04-26T06:56:20.165Z,40.47
2023-04-26T07:01:24.393Z,40.96
2023-04-26T07:06:27.691Z,40.23
2023-04-26T07:11:31.124Z,41.80
2023-04-26T07:16:35.389Z,39.70
2023-04-26T07:21:38.173Z,44.00
2023-04-26T07:26:41.288Z,37.88
2023-04-26T07:31:45.550Z,36.80
2023-04-26T07:36:48.281Z,32.43
2023-04-26T07:41:51.064Z,32.91
2023-04-26T07:46:55.926Z,33.51
2023-04-26T07:52:02.164Z,37.75
2023-04-26T07:57:05.061Z,47.38
2023-04-26T08:02:09.238Z,56.88
2023-04-26T08:07:12.022Z,64.56
2023-04-26T08:12:14.929Z,65.68
2023-04-26T08:17:19.344Z,66.92
2023-04-26T08:22:22.230Z,67.13
2023-04-26T08:27:24.957Z,62.59
2023-04-26T08:32:29.174Z,59.36
2023-04-26T08:37:32.135Z,62.36
2023-04-26T08:42:38.434Z,60.74
2023-04-26T08:47:45.751Z,56.76
2023-04-26T08:52:50.385Z,58.50
2023-04-26T08:57:53.194Z,60.39
2023-04-26T09:02:57.584Z,61.77
2023-04-26T09:08:03.457Z,65.51
2023-04-26T09:13:06.391Z,61.62
2023-04-26T09:18:21.291Z,57.92
2023-04-26T09:23:24.229Z,54.40
2023-04-26T09:28:27.320Z,53.56
2023-04-26T09:33:31.710Z,52.13
2023-04-26T09:38:45.893Z,55.04
2023-04-26T09:43:51.418Z,52.80
2023-04-26T09:49:03.690Z,51.71
2023-04-26T09:54:06.681Z,48.91
2023-04-26T09:59:11.579Z,44.79
2023-04-26T10:04:16.058Z,49.29
2023-04-26T10:09:19.029Z,56.70
2023-04-26T10:14:21.828Z,59.50
2023-04-26T10:19:26.171Z,59.04
2023-04-26T10:24:29.350Z,58.01
2023-04-26T10:30:07.405Z,56.05
2023-04-26T10:35:13.090Z,53.98
2023-04-26T10:40:27.564Z,50.65
2023-04-26T10:45:31.212Z,50.13
2023-04-26T10:50:35.480Z,48.51
2023-04-26T10:55:42.995Z,50.79
2023-04-26T11:01:05.226Z,53.86
2023-04-26T11:06:13.676Z,53.06
2023-04-26T11:11:19.377Z,53.08
2023-04-26T11:16:26.686Z,52.36
2023-04-26T11:21:39.397Z,51.53
2023-04-26T11:26:43.529Z,49.81
2023-04-26T11:31:52.374Z,49.34
2023-04-26T11:36:56.672Z,43.89
2023-04-26T11:42:07.085Z,46.83
2023-04-26T11:47:11.012Z,46.99
2023-04-26T11:52:15.632Z,46.89
2023-04-26T11:57:19.376Z,46.26
2023-04-26T12:02:25.555Z,45.30
2023-04-26T12:07:34.127Z,43.70
2023-04-26T12:12:36.878Z,43.83
2023-04-26T12:17:39.812Z,43.87
2023-04-26T12:22:44.067Z,44.72
2023-04-26T12:27:46.818Z,43.42
2023-04-26T12:32:49.691Z,42.41
2023-04-26T12:37:56.757Z,41.77
2023-04-26T12:42:59.622Z,40.42
2023-04-26T12:48:02.648Z,39.88
2023-04-26T12:53:06.787Z,38.44
2023-04-26T12:58:09.571Z,37.55
2023-04-26T13:03:14.646Z,38.83
2023-04-26T13:08:19.241Z,38.88
2023-04-26T13:13:29.276Z,40.55
2023-04-26T13:18:39.036Z,40.12
2023-04-26T13:23:43.325Z,40.17
2023-04-26T13:28:47.384Z,39.21
2023-04-26T13:33:50.795Z,40.59
2023-04-26T13:38:54.984Z,38.08
2023-04-26T13:43:57.753Z,37.83
2023-04-26T13:49:01.626Z,38.66
2023-04-26T13:54:06.643Z,40.80
2023-04-26T13:59:09.445Z,36.97
2023-04-26T14:04:12.655Z,37.52
2023-04-26T14:09:18.392Z,37.57
2023-04-26T14:14:21.208Z,39.66
2023-04-26T14:19:24.107Z,38.78
2023-04-26T14:24:28.243Z,37.36
2023-04-26T14:29:31.041Z,37.45
2023-04-26T14:34:41.095Z,36.66
2023-04-26T14:39:45.372Z,38.57
2023-04-26T14:44:48.202Z,40.54
2023-04-26T14:49:56.650Z,36.54
2023-04-26T14:55:00.803Z,39.34
2023-04-26T15:00:08.757Z,40.72
2023-04-26T15:05:11.895Z,39.54
2023-04-26T15:10:16.209Z,38.30
2023-04-26T15:15:18.973Z,38.32
2023-04-26T15:20:22.370Z,40.45
2023-04-26T15:25:26.649Z,40.46
2023-04-26T15:30:31.527Z,40.29
2023-04-26T15:35:36.166Z,39.49
2023-04-26T15:40:40.633Z,38.32
2023-04-26T15:45:44.475Z,38.89
2023-04-26T15:50:50.650Z,40.21
2023-04-26T15:55:54.777Z,39.55
2023-04-26T16:00:58.688Z,38.98
2023-04-26T16:06:02.022Z,39.89
2023-04-26T16:11:09.896Z,40.13
2023-04-26T16:16:18.282Z,42.23
2023-04-26T16:21:23.352Z,42.67
2023-04-26T16:26:37.197Z,43.10
2023-04-26T16:31:40.390Z,43.01
2023-04-26T16:36:44.177Z,43.78
2023-04-26T16:41:49.050Z,44.97
2023-04-26T16:46:54.925Z,44.93
2023-04-26T16:52:00.006Z,45.75
2023-04-26T16:57:04.718Z,45.64
2023-04-26T17:02:07.812Z,44.94
2023-04-26T17:07:10.817Z,44.02
2023-04-26T17:12:18.282Z,43.96
2023-04-26T17:17:21.351Z,43.80
2023-04-26T17:22:25.469Z,43.70
2023-04-26T17:27:29.754Z,41.58
2023-04-26T17:32:32.685Z,42.33
2023-04-26T17:37:35.761Z,42.90
2023-04-26T17:42:39.949Z,44.20
2023-04-26T17:47:43.105Z,43.96
2023-04-26T17:52:46.414Z,43.13
2023-04-26T17:57:50.604Z,43.04
2023-04-26T18:02:53.924Z,43.83
2023-04-26T18:07:57.374Z,44.26
2023-04-26T18:13:01.735Z,45.25
2023-04-26T18:18:05.704Z,46.05
2023-04-26T18:23:18.075Z,46.48
2023-04-26T18:28:23.099Z,47.16
2023-04-26T18:33:32.958Z,47.10
2023-04-26T18:38:36.106Z,47.65
2023-04-26T18:43:43.002Z,48.50
2023-04-26T18:48:46.047Z,49.83
2023-04-26T18:53:55.876Z,49.22
2023-04-26T18:59:24.048Z,50.49
2023-04-26T19:12:12.137Z,51.84
2023-04-26T19:22:52.429Z,53.48
2023-04-26T19:34:07.856Z,55.78
2023-04-26T19:39:10.968Z,55.40
2023-04-26T19:44:14.147Z,56.79
2023-04-26T19:49:18.569Z,57.15
2023-04-26T19:54:28.880Z,56.21
2023-04-26T20:00:01.966Z,57.87
2023-04-26T20:53:11.889Z,58.62
2023-04-26T20:58:14.813Z,59.07
2023-04-26T21:03:17.704Z,58.99
2023-04-26T21:08:21.903Z,59.43
2023-04-26T21:13:24.705Z,59.27
2023-04-26T21:18:27.840Z,59.63
2023-04-26T21:23:32.034Z,59.63
2023-04-26T21:28:35.162Z,60.24
2023-04-26T21:33:37.982Z,60.59
2023-04-26T21:38:42.102Z,60.62
2023-04-26T21:43:45.038Z,60.42
2023-04-26T21:48:47.939Z,61.23
2023-04-26T21:53:52.075Z,62.69
2023-04-26T21:58:54.796Z,63.93
2023-04-26T22:03:57.695Z,64.20
2023-04-26T22:09:01.955Z,66.00
2023-04-26T22:14:04.721Z,65.18
2023-04-26T22:19:07.462Z,64.40
2023-04-26T22:24:11.583Z,65.32
2023-04-26T22:29:14.558Z,65.00
2023-04-26T22:34:19.323Z,65.76
2023-04-26T22:39:23.461Z,64.94
2023-04-26T22:44:26.282Z,65.40
2023-04-26T22:49:29.239Z,66.31
2023-04-26T22:54:33.898Z,67.07
2023-04-26T22:59:36.762Z,67.00
2023-04-26T23:04:39.656Z,67.31
2023-04-26T23:09:43.900Z,67.35
2023-04-26T23:14:47.768Z,67.92
2023-04-26T23:19:50.556Z,67.08
2023-04-26T23:24:54.816Z,66.74
2023-04-26T23:29:59.384Z,66.08
2023-04-26T23:35:02.401Z,67.01
2023-04-26T23:40:10.279Z,68.21
2023-04-26T23:45:13.066Z,66.81
2023-04-26T23:50:15.812Z,66.97
2023-04-26T23:55:19.948Z,68.28
